sensor_id;sensor_type;location;lat;lon;timestamp;pressure;altitude;pressure_sealevel;temperature;humidity
10310;BME280;5200;43.236;27.986;2022-07-29T00:00:07;100114.19;;;22.51;82.41
10310;BME280;5200;43.236;27.986;2022-07-29T00:02:35;100091.38;;;22.35;81.70
10310;BME280;5200;43.236;27.986;2022-07-29T00:05:02;100093.78;;;22.43;82.17
10310;BME280;5200;43.236;27.986;2022-07-29T00:07:29;100095.22;;;22.46;82.08
10310;BME280;5200;43.236;27.986;2022-07-29T00:09:58;100114.97;;;22.58;81.81
10310;BME280;5200;43.236;27.986;2022-07-29T00:12:25;100095.22;;;22.46;82.22
10310;BME280;5200;43.236;27.986;2022-07-29T00:14:52;100098.13;;;22.44;81.84
10310;BME280;5200;43.236;27.986;2022-07-29T00:17:20;100081.09;;;22.32;81.85
10310;BME280;5200;43.236;27.986;2022-07-29T00:19:47;100112.72;;;22.55;81.93
10310;BME280;5200;43.236;27.986;2022-07-29T00:22:15;100104.50;;;22.50;81.68
10310;BME280;5200;43.236;27.986;2022-07-29T00:24:41;100078.59;;;22.30;81.51
10310;BME280;5200;43.236;27.986;2022-07-29T00:27:10;100096.13;;;22.33;81.85
10310;BME280;5200;43.236;27.986;2022-07-29T00:29:37;100087.66;;;22.29;82.10
10310;BME280;5200;43.236;27.986;2022-07-29T00:32:04;100115.66;;;22.47;81.86
10310;BME280;5200;43.236;27.986;2022-07-29T00:34:31;100097.38;;;22.30;81.63
10310;BME280;5200;43.236;27.986;2022-07-29T00:37:16;100097.38;;;22.30;81.54
10310;BME280;5200;43.236;27.986;2022-07-29T00:39:43;100098.63;;;22.28;81.59
10310;BME280;5200;43.236;27.986;2022-07-29T00:42:11;100092.22;;;22.29;82.03
10310;BME280;5200;43.236;27.986;2022-07-29T00:44:39;100085.84;;;22.23;81.71
10310;BME280;5200;43.236;27.986;2022-07-29T00:47:06;100108.47;;;22.34;82.06
10310;BME280;5200;43.236;27.986;2022-07-29T00:49:34;100089.94;;;22.19;82.74
10310;BME280;5200;43.236;27.986;2022-07-29T00:52:01;100101.06;;;22.29;82.75
10310;BME280;5200;43.236;27.986;2022-07-29T00:54:28;100103.34;;;22.32;82.86
10310;BME280;5200;43.236;27.986;2022-07-29T00:56:57;100101.69;;;22.31;82.19
10310;BME280;5200;43.236;27.986;2022-07-29T00:59:27;100085.63;;;22.18;82.62
10310;BME280;5200;43.236;27.986;2022-07-29T01:01:54;100082.34;;;22.16;82.51
10310;BME280;5200;43.236;27.986;2022-07-29T01:04:21;100071.44;;;22.11;82.40
10310;BME280;5200;43.236;27.986;2022-07-29T01:06:48;100101.31;;;22.21;83.33
10310;BME280;5200;43.236;27.986;2022-07-29T01:09:17;100101.31;;;22.21;83.76
10310;BME280;5200;43.236;27.986;2022-07-29T01:11:46;100079.88;;;22.08;83.47
10310;BME280;5200;43.236;27.986;2022-07-29T01:14:14;100100.91;;;22.11;84.01
10310;BME280;5200;43.236;27.986;2022-07-29T01:16:46;100098.41;;;22.16;84.18
10310;BME280;5200;43.236;27.986;2022-07-29T01:19:30;100072.91;;;22.00;83.83
10310;BME280;5200;43.236;27.986;2022-07-29T01:22:21;100101.72;;;22.11;83.86
10310;BME280;5200;43.236;27.986;2022-07-29T01:25:21;100095.13;;;22.14;82.67
10310;BME280;5200;43.236;27.986;2022-07-29T01:28:06;100089.16;;;22.12;82.80
10310;BME280;5200;43.236;27.986;2022-07-29T01:30:40;100083.16;;;22.16;82.17
10310;BME280;5200;43.236;27.986;2022-07-29T01:33:11;100062.81;;;22.02;82.30
10310;BME280;5200;43.236;27.986;2022-07-29T01:36:02;100085.63;;;22.18;81.73
10310;BME280;5200;43.236;27.986;2022-07-29T01:38:33;100064.41;;;22.10;81.56
10310;BME280;5200;43.236;27.986;2022-07-29T01:41:05;100073.50;;;22.15;81.30
10310;BME280;5200;43.236;27.986;2022-07-29T01:43:38;100075.13;;;22.10;81.02
10310;BME280;5200;43.236;27.986;2022-07-29T01:46:13;100086.06;;;22.22;81.25
10310;BME280;5200;43.236;27.986;2022-07-29T01:48:45;100065.03;;;22.12;81.14
10310;BME280;5200;43.236;27.986;2022-07-29T01:51:18;100063.41;;;22.11;80.66
10310;BME280;5200;43.236;27.986;2022-07-29T01:53:48;100056.19;;;22.05;80.45
10310;BME280;5200;43.236;27.986;2022-07-29T01:56:18;100065.88;;;22.06;80.26
10310;BME280;5200;43.236;27.986;2022-07-29T01:58:48;100057.25;;;21.97;80.32
10310;BME280;5200;43.236;27.986;2022-07-29T02:01:18;100077.81;;;22.10;80.41
10310;BME280;5200;43.236;27.986;2022-07-29T02:03:46;100065.88;;;22.06;80.87
10310;BME280;5200;43.236;27.986;2022-07-29T02:06:16;100064.03;;;22.06;80.63
10310;BME280;5200;43.236;27.986;2022-07-29T02:08:46;100071.00;;;22.14;81.21
10310;BME280;5200;43.236;27.986;2022-07-29T02:11:14;100053.09;;;22.01;81.32
10310;BME280;5200;43.236;27.986;2022-07-29T02:13:41;100062.63;;;21.97;81.46
10310;BME280;5200;43.236;27.986;2022-07-29T02:16:09;100080.94;;;22.07;82.25
10310;BME280;5200;43.236;27.986;2022-07-29T02:18:40;100064.88;;;21.93;83.15
10310;BME280;5200;43.236;27.986;2022-07-29T02:21:07;100073.72;;;22.01;84.08
10310;BME280;5200;43.236;27.986;2022-07-29T02:23:37;100079.50;;;21.98;85.03
10310;BME280;5200;43.236;27.986;2022-07-29T02:26:07;100061.84;;;21.83;86.73
10310;BME280;5200;43.236;27.986;2022-07-29T02:28:35;100089.00;;;21.93;87.62
10310;BME280;5200;43.236;27.986;2022-07-29T02:31:03;100054.81;;;21.82;87.53
10310;BME280;5200;43.236;27.986;2022-07-29T02:33:32;100062.66;;;21.77;87.89
10310;BME280;5200;43.236;27.986;2022-07-29T02:36:02;100062.03;;;21.75;88.84
10310;BME280;5200;43.236;27.986;2022-07-29T02:38:30;100051.56;;;21.67;89.51
10310;BME280;5200;43.236;27.986;2022-07-29T02:41:23;100078.72;;;21.84;89.55
10310;BME280;5200;43.236;27.986;2022-07-29T02:43:54;100081.59;;;21.82;89.61
10310;BME280;5200;43.236;27.986;2022-07-29T02:46:27;100089.44;;;21.77;89.89
10310;BME280;5200;43.236;27.986;2022-07-29T02:48:58;100081.63;;;21.69;90.20
10310;BME280;5200;43.236;27.986;2022-07-29T02:51:36;100090.25;;;21.78;90.36
10310;BME280;5200;43.236;27.986;2022-07-29T02:54:07;100071.97;;;21.61;90.92
10310;BME280;5200;43.236;27.986;2022-07-29T02:56:38;100069.69;;;21.58;91.55
10310;BME280;5200;43.236;27.986;2022-07-29T02:59:10;100068.47;;;21.61;91.57
10310;BME280;5200;43.236;27.986;2022-07-29T03:01:40;100093.97;;;21.83;92.00
10310;BME280;5200;43.236;27.986;2022-07-29T03:04:09;100066.81;;;21.73;91.80
10310;BME280;5200;43.236;27.986;2022-07-29T03:06:40;100091.47;;;22.02;91.48
10310;BME280;5200;43.236;27.986;2022-07-29T03:09:07;100102.53;;;22.19;90.86
10310;BME280;5200;43.236;27.986;2022-07-29T03:11:36;100075.31;;;22.28;90.14
10310;BME280;5200;43.236;27.986;2022-07-29T03:14:05;100074.75;;;22.58;88.67
10310;BME280;5200;43.236;27.986;2022-07-29T03:16:33;100079.09;;;22.91;86.83
10310;BME280;5200;43.236;27.986;2022-07-29T03:19:03;100102.72;;;23.39;85.32
10310;BME280;5200;43.236;27.986;2022-07-29T03:21:30;100104.06;;;23.73;82.84
10310;BME280;5200;43.236;27.986;2022-07-29T03:23:59;100089.31;;;24.01;80.99
10310;BME280;5200;43.236;27.986;2022-07-29T03:26:26;100083.56;;;24.34;78.72
10310;BME280;5200;43.236;27.986;2022-07-29T03:28:53;100105.50;;;24.68;77.09
10310;BME280;5200;43.236;27.986;2022-07-29T03:31:21;100093.88;;;24.86;75.83
10310;BME280;5200;43.236;27.986;2022-07-29T03:33:48;100111.06;;;25.27;74.52
10310;BME280;5200;43.236;27.986;2022-07-29T03:36:15;100091.44;;;25.50;72.67
10310;BME280;5200;43.236;27.986;2022-07-29T03:38:42;100107.34;;;25.99;71.28
10310;BME280;5200;43.236;27.986;2022-07-29T03:41:13;100106.25;;;26.23;69.15
10310;BME280;5200;43.236;27.986;2022-07-29T03:43:41;100114.66;;;26.27;69.21
10310;BME280;5200;43.236;27.986;2022-07-29T03:46:10;100114.50;;;26.45;68.25
10310;BME280;5200;43.236;27.986;2022-07-29T03:48:42;100103.47;;;26.59;67.24
10310;BME280;5200;43.236;27.986;2022-07-29T03:51:13;100110.56;;;26.76;66.85
10310;BME280;5200;43.236;27.986;2022-07-29T03:53:41;100123.50;;;26.91;65.55
10310;BME280;5200;43.236;27.986;2022-07-29T03:56:10;100106.34;;;27.14;65.37
10310;BME280;5200;43.236;27.986;2022-07-29T03:58:40;100094.34;;;27.22;64.60
10310;BME280;5200;43.236;27.986;2022-07-29T04:01:07;100123.75;;;27.52;63.43
10310;BME280;5200;43.236;27.986;2022-07-29T04:03:34;100116.19;;;27.71;62.67
10310;BME280;5200;43.236;27.986;2022-07-29T04:06:03;100102.59;;;27.66;62.38
10310;BME280;5200;43.236;27.986;2022-07-29T04:08:31;100117.06;;;27.94;61.46
10310;BME280;5200;43.236;27.986;2022-07-29T04:10:58;100092.94;;;27.87;60.91
10310;BME280;5200;43.236;27.986;2022-07-29T04:13:25;100111.88;;;28.09;59.68
10310;BME280;5200;43.236;27.986;2022-07-29T04:15:53;100110.34;;;28.18;59.91
10310;BME280;5200;43.236;27.986;2022-07-29T04:18:21;100108.16;;;28.37;59.29
10310;BME280;5200;43.236;27.986;2022-07-29T04:20:48;100111.88;;;28.53;57.89
10310;BME280;5200;43.236;27.986;2022-07-29T04:23:15;100090.84;;;28.60;57.84
10310;BME280;5200;43.236;27.986;2022-07-29T04:25:42;100082.88;;;28.76;57.02
10310;BME280;5200;43.236;27.986;2022-07-29T04:28:09;100105.16;;;29.10;55.90
10310;BME280;5200;43.236;27.986;2022-07-29T04:30:37;100085.22;;;28.94;55.08
10310;BME280;5200;43.236;27.986;2022-07-29T04:33:06;100095.88;;;29.06;54.16
10310;BME280;5200;43.236;27.986;2022-07-29T04:35:35;100104.13;;;29.16;54.75
10310;BME280;5200;43.236;27.986;2022-07-29T04:38:03;100102.47;;;29.47;54.26
10310;BME280;5200;43.236;27.986;2022-07-29T04:40:30;100083.22;;;29.49;51.73
10310;BME280;5200;43.236;27.986;2022-07-29T04:42:59;100101.25;;;29.28;51.90
10310;BME280;5200;43.236;27.986;2022-07-29T04:45:26;100080.88;;;28.93;52.75
10310;BME280;5200;43.236;27.986;2022-07-29T04:47:53;100103.28;;;29.16;52.62
10310;BME280;5200;43.236;27.986;2022-07-29T04:50:21;100103.03;;;29.49;52.21
10310;BME280;5200;43.236;27.986;2022-07-29T04:52:49;100097.44;;;29.66;50.32
10310;BME280;5200;43.236;27.986;2022-07-29T04:55:16;100078.47;;;29.66;50.12
10310;BME280;5200;43.236;27.986;2022-07-29T04:57:43;100083.47;;;29.85;49.90
10310;BME280;5200;43.236;27.986;2022-07-29T05:00:11;100106.34;;;30.09;48.99
10310;BME280;5200;43.236;27.986;2022-07-29T05:02:38;100097.47;;;30.24;48.09
10310;BME280;5200;43.236;27.986;2022-07-29T05:05:05;100094.81;;;30.29;47.24
10310;BME280;5200;43.236;27.986;2022-07-29T05:07:33;100080.59;;;30.07;46.71
10310;BME280;5200;43.236;27.986;2022-07-29T05:10:00;100088.72;;;30.12;48.04
10310;BME280;5200;43.236;27.986;2022-07-29T05:12:27;100091.56;;;30.32;46.92
10310;BME280;5200;43.236;27.986;2022-07-29T05:14:54;100069.72;;;30.07;46.49
10310;BME280;5200;43.236;27.986;2022-07-29T05:17:21;100078.84;;;29.80;46.81
10310;BME280;5200;43.236;27.986;2022-07-29T05:19:48;100077.72;;;29.76;47.42
10310;BME280;5200;43.236;27.986;2022-07-29T05:22:17;100076.38;;;29.79;45.99
10310;BME280;5200;43.236;27.986;2022-07-29T05:24:45;100100.03;;;29.93;45.38
10310;BME280;5200;43.236;27.986;2022-07-29T05:27:12;100103.59;;;29.94;44.21
10310;BME280;5200;43.236;27.986;2022-07-29T05:29:40;100096.16;;;29.79;44.52
10310;BME280;5200;43.236;27.986;2022-07-29T05:32:07;100071.97;;;29.67;44.25
10310;BME280;5200;43.236;27.986;2022-07-29T05:34:34;100067.38;;;29.68;44.07
10310;BME280;5200;43.236;27.986;2022-07-29T05:37:01;100082.63;;;29.84;43.89
10310;BME280;5200;43.236;27.986;2022-07-29T05:39:28;100076.41;;;29.84;42.78
10310;BME280;5200;43.236;27.986;2022-07-29T05:41:56;100094.09;;;29.91;42.81
10310;BME280;5200;43.236;27.986;2022-07-29T05:44:23;100091.88;;;29.83;42.04
10310;BME280;5200;43.236;27.986;2022-07-29T05:46:50;100088.38;;;29.88;41.94
10310;BME280;5200;43.236;27.986;2022-07-29T05:49:17;100080.31;;;30.03;42.30
10310;BME280;5200;43.236;27.986;2022-07-29T05:51:44;100091.06;;;30.46;41.59
10310;BME280;5200;43.236;27.986;2022-07-29T05:54:11;100074.19;;;30.33;40.57
10310;BME280;5200;43.236;27.986;2022-07-29T05:56:38;100080.47;;;30.44;41.32
10310;BME280;5200;43.236;27.986;2022-07-29T05:59:06;100082.41;;;30.64;39.98
10310;BME280;5200;43.236;27.986;2022-07-29T06:01:33;100099.31;;;30.87;40.07
10310;BME280;5200;43.236;27.986;2022-07-29T06:04:04;100090.63;;;31.00;39.58
10310;BME280;5200;43.236;27.986;2022-07-29T06:06:31;100075.94;;;31.06;39.30
10310;BME280;5200;43.236;27.986;2022-07-29T06:08:58;100095.78;;;31.27;38.71
10310;BME280;5200;43.236;27.986;2022-07-29T06:11:25;100096.06;;;31.31;39.32
10310;BME280;5200;43.236;27.986;2022-07-29T06:13:52;100090.06;;;31.44;38.21
10310;BME280;5200;43.236;27.986;2022-07-29T06:16:21;100092.19;;;31.68;39.09
10310;BME280;5200;43.236;27.986;2022-07-29T06:18:48;100095.41;;;32.00;37.19
10310;BME280;5200;43.236;27.986;2022-07-29T06:21:15;100090.44;;;32.18;36.33
10310;BME280;5200;43.236;27.986;2022-07-29T06:23:42;100093.84;;;32.44;36.91
10310;BME280;5200;43.236;27.986;2022-07-29T06:26:09;100078.78;;;32.62;35.94
10310;BME280;5200;43.236;27.986;2022-07-29T06:28:36;100079.56;;;32.68;34.98
10310;BME280;5200;43.236;27.986;2022-07-29T06:31:03;100076.66;;;32.54;33.88
10310;BME280;5200;43.236;27.986;2022-07-29T06:33:31;100094.06;;;32.58;35.04
10310;BME280;5200;43.236;27.986;2022-07-29T06:35:58;100090.34;;;32.83;34.16
10310;BME280;5200;43.236;27.986;2022-07-29T06:38:26;100070.69;;;32.91;32.97
10310;BME280;5200;43.236;27.986;2022-07-29T06:40:53;100091.03;;;33.04;33.69
10310;BME280;5200;43.236;27.986;2022-07-29T06:43:32;100089.13;;;33.04;32.20
10310;BME280;5200;43.236;27.986;2022-07-29T06:46:01;100088.72;;;32.82;35.24
10310;BME280;5200;43.236;27.986;2022-07-29T06:48:31;100070.09;;;32.55;34.81
10310;BME280;5200;43.236;27.986;2022-07-29T06:50:58;100099.88;;;32.85;32.75
10310;BME280;5200;43.236;27.986;2022-07-29T06:53:25;100094.44;;;32.85;31.80
10310;BME280;5200;43.236;27.986;2022-07-29T06:55:52;100088.22;;;32.75;32.63
10310;BME280;5200;43.236;27.986;2022-07-29T06:58:19;100084.56;;;32.45;33.19
10310;BME280;5200;43.236;27.986;2022-07-29T07:00:47;100096.38;;;32.30;32.01
10310;BME280;5200;43.236;27.986;2022-07-29T07:03:14;100073.09;;;32.04;34.99
10310;BME280;5200;43.236;27.986;2022-07-29T07:05:43;100083.41;;;32.07;36.34
10310;BME280;5200;43.236;27.986;2022-07-29T07:08:10;100073.66;;;31.90;35.31
10310;BME280;5200;43.236;27.986;2022-07-29T07:10:37;100074.78;;;31.74;35.10
10310;BME280;5200;43.236;27.986;2022-07-29T07:13:04;100095.97;;;31.97;37.63
10310;BME280;5200;43.236;27.986;2022-07-29T07:15:31;100089.16;;;31.90;37.08
10310;BME280;5200;43.236;27.986;2022-07-29T07:17:58;100077.78;;;31.72;36.68
10310;BME280;5200;43.236;27.986;2022-07-29T07:20:25;100095.47;;;31.80;37.03
10310;BME280;5200;43.236;27.986;2022-07-29T07:22:54;100072.63;;;31.76;38.00
10310;BME280;5200;43.236;27.986;2022-07-29T07:25:21;100087.31;;;31.65;37.21
10310;BME280;5200;43.236;27.986;2022-07-29T07:27:48;100057.75;;;31.43;36.38
10310;BME280;5200;43.236;27.986;2022-07-29T07:30:15;100073.25;;;31.42;37.45
10310;BME280;5200;43.236;27.986;2022-07-29T07:32:42;100086.78;;;31.37;37.90
10310;BME280;5200;43.236;27.986;2022-07-29T07:35:10;100097.41;;;31.13;37.47
10310;BME280;5200;43.236;27.986;2022-07-29T07:37:37;100092.25;;;30.96;37.09
10310;BME280;5200;43.236;27.986;2022-07-29T07:40:08;100072.94;;;30.77;38.40
10310;BME280;5200;43.236;27.986;2022-07-29T07:42:37;100104.22;;;31.00;38.65
10310;BME280;5200;43.236;27.986;2022-07-29T07:45:05;100104.75;;;31.07;39.05
10310;BME280;5200;43.236;27.986;2022-07-29T07:47:34;100102.56;;;30.94;34.28
10310;BME280;5200;43.236;27.986;2022-07-29T07:50:02;100114.53;;;31.03;36.23
10310;BME280;5200;43.236;27.986;2022-07-29T07:52:29;100107.19;;;31.09;36.58
10310;BME280;5200;43.236;27.986;2022-07-29T07:54:56;100103.66;;;31.03;36.32
10310;BME280;5200;43.236;27.986;2022-07-29T07:57:25;100106.09;;;30.89;36.87
10310;BME280;5200;43.236;27.986;2022-07-29T07:59:52;100112.34;;;30.85;37.71
10310;BME280;5200;43.236;27.986;2022-07-29T08:02:19;100097.91;;;30.79;36.78
10310;BME280;5200;43.236;27.986;2022-07-29T08:04:46;100087.63;;;30.86;36.78
10310;BME280;5200;43.236;27.986;2022-07-29T08:07:13;100090.34;;;30.91;37.95
10310;BME280;5200;43.236;27.986;2022-07-29T08:09:40;100092.25;;;30.96;38.17
10310;BME280;5200;43.236;27.986;2022-07-29T08:12:07;100084.38;;;31.05;37.61
10310;BME280;5200;43.236;27.986;2022-07-29T08:14:36;100095.00;;;31.42;37.36
10310;BME280;5200;43.236;27.986;2022-07-29T08:17:03;100085.19;;;31.41;36.57
10310;BME280;5200;43.236;27.986;2022-07-29T08:19:30;100094.97;;;31.32;34.92
10310;BME280;5200;43.236;27.986;2022-07-29T08:21:57;100090.34;;;31.27;35.46
10310;BME280;5200;43.236;27.986;2022-07-29T08:24:24;100114.53;;;31.34;35.06
10310;BME280;5200;43.236;27.986;2022-07-29T08:27:08;100085.75;;;31.43;36.10
10310;BME280;5200;43.236;27.986;2022-07-29T08:29:37;100092.81;;;31.49;35.00
10310;BME280;5200;43.236;27.986;2022-07-29T08:32:05;100099.31;;;31.48;35.61
10310;BME280;5200;43.236;27.986;2022-07-29T08:34:32;100106.13;;;31.41;34.70
10310;BME280;5200;43.236;27.986;2022-07-29T08:36:59;100089.53;;;31.32;34.86
10310;BME280;5200;43.236;27.986;2022-07-29T08:39:26;100098.75;;;31.21;35.03
10310;BME280;5200;43.236;27.986;2022-07-29T08:41:53;100093.88;;;31.28;34.98
10310;BME280;5200;43.236;27.986;2022-07-29T08:44:21;100088.16;;;31.34;35.00
10310;BME280;5200;43.236;27.986;2022-07-29T08:46:50;100106.38;;;31.54;35.18
10310;BME280;5200;43.236;27.986;2022-07-29T08:49:17;100094.44;;;31.50;34.88
10310;BME280;5200;43.236;27.986;2022-07-29T08:51:45;100081.66;;;31.41;35.61
10310;BME280;5200;43.236;27.986;2022-07-29T08:54:16;100086.81;;;31.47;35.13
10310;BME280;5200;43.236;27.986;2022-07-29T08:56:45;100090.91;;;31.50;35.02
10310;BME280;5200;43.236;27.986;2022-07-29T08:59:14;100094.44;;;31.50;35.05
10310;BME280;5200;43.236;27.986;2022-07-29T09:01:43;100062.09;;;31.28;34.36
10310;BME280;5200;43.236;27.986;2022-07-29T09:04:13;100088.44;;;31.48;34.64
10310;BME280;5200;43.236;27.986;2022-07-29T09:06:44;100070.00;;;31.40;34.01
10310;BME280;5200;43.236;27.986;2022-07-29T09:09:12;100068.84;;;31.51;33.97
10310;BME280;5200;43.236;27.986;2022-07-29T09:11:40;100082.44;;;31.51;33.42
10310;BME280;5200;43.236;27.986;2022-07-29T09:14:08;100086.81;;;31.06;33.09
10310;BME280;5200;43.236;27.986;2022-07-29T09:16:46;100081.38;;;30.86;35.64
10310;BME280;5200;43.236;27.986;2022-07-29T09:19:21;100101.22;;;30.96;37.08
10310;BME280;5200;43.236;27.986;2022-07-29T09:21:49;100088.44;;;30.92;38.19
10310;BME280;5200;43.236;27.986;2022-07-29T09:24:29;100079.97;;;30.78;39.53
10310;BME280;5200;43.236;27.986;2022-07-29T09:27:08;100075.34;;;30.73;39.89
10310;BME280;5200;43.236;27.986;2022-07-29T09:29:35;100087.31;;;30.72;40.86
10310;BME280;5200;43.236;27.986;2022-07-29T09:32:06;100096.00;;;30.74;40.44
10310;BME280;5200;43.236;27.986;2022-07-29T09:34:36;100096.81;;;30.65;39.90
10310;BME280;5200;43.236;27.986;2022-07-29T09:37:04;100082.94;;;30.56;40.35
10310;BME280;5200;43.236;27.986;2022-07-29T09:39:33;100072.59;;;30.43;41.64
10310;BME280;5200;43.236;27.986;2022-07-29T09:42:03;100093.25;;;30.49;40.65
10310;BME280;5200;43.236;27.986;2022-07-29T09:44:47;100057.81;;;30.13;37.42
10310;BME280;5200;43.236;27.986;2022-07-29T09:47:15;100088.25;;;30.25;38.45
10310;BME280;5200;43.236;27.986;2022-07-29T09:50:01;100073.56;;;30.21;37.84
10310;BME280;5200;43.236;27.986;2022-07-29T09:52:29;100069.50;;;30.13;36.74
10310;BME280;5200;43.236;27.986;2022-07-29T09:55:04;100086.69;;;30.34;37.34
10310;BME280;5200;43.236;27.986;2022-07-29T09:57:31;100092.13;;;30.45;37.47
10310;BME280;5200;43.236;27.986;2022-07-29T09:59:59;100066.03;;;30.28;37.84
10310;BME280;5200;43.236;27.986;2022-07-29T10:02:31;100082.53;;;30.22;38.42
10310;BME280;5200;43.236;27.986;2022-07-29T10:05:02;100084.53;;;30.37;38.26
10310;BME280;5200;43.236;27.986;2022-07-29T10:07:44;100068.19;;;30.26;38.19
10310;BME280;5200;43.236;27.986;2022-07-29T10:10:18;100071.41;;;30.18;36.64
10310;BME280;5200;43.236;27.986;2022-07-29T10:12:49;100082.50;;;30.17;37.56
10310;BME280;5200;43.236;27.986;2022-07-29T10:15:16;100075.94;;;30.02;36.57
10310;BME280;5200;43.236;27.986;2022-07-29T10:17:45;100072.41;;;29.91;37.23
10310;BME280;5200;43.236;27.986;2022-07-29T10:20:13;100081.69;;;30.11;37.38
10310;BME280;5200;43.236;27.986;2022-07-29T10:22:40;100086.38;;;30.26;37.25
10310;BME280;5200;43.236;27.986;2022-07-29T10:25:09;100088.28;;;30.30;36.66
10310;BME280;5200;43.236;27.986;2022-07-29T10:27:36;100072.44;;;30.02;37.24
10310;BME280;5200;43.236;27.986;2022-07-29T10:30:05;100062.63;;;29.96;37.24
10310;BME280;5200;43.236;27.986;2022-07-29T10:32:46;100089.25;;;29.99;38.43
10310;BME280;5200;43.236;27.986;2022-07-29T10:35:28;100086.03;;;30.17;38.53
10310;BME280;5200;43.236;27.986;2022-07-29T10:38:10;100077.09;;;30.22;38.31
10310;BME280;5200;43.236;27.986;2022-07-29T10:40:47;100075.72;;;30.09;37.71
10310;BME280;5200;43.236;27.986;2022-07-29T10:43:37;100057.19;;;29.96;39.97
10310;BME280;5200;43.236;27.986;2022-07-29T10:46:07;100082.75;;;30.05;40.88
10310;BME280;5200;43.236;27.986;2022-07-29T10:48:35;100082.72;;;30.00;41.10
10310;BME280;5200;43.236;27.986;2022-07-29T10:51:05;100076.53;;;30.09;39.52
10310;BME280;5200;43.236;27.986;2022-07-29T10:53:47;100053.69;;;29.95;40.98
10310;BME280;5200;43.236;27.986;2022-07-29T10:56:24;100066.91;;;29.81;42.19
10310;BME280;5200;43.236;27.986;2022-07-29T10:59:22;100090.31;;;29.98;42.01
10310;BME280;5200;43.236;27.986;2022-07-29T11:01:52;100054.16;;;29.82;42.55
10310;BME280;5200;43.236;27.986;2022-07-29T11:07:30;100080.56;;;30.02;41.99
10310;BME280;5200;43.236;27.986;2022-07-29T11:10:21;100065.91;;;30.08;41.85
10310;BME280;5200;43.236;27.986;2022-07-29T11:12:49;100065.41;;;30.11;41.72
10310;BME280;5200;43.236;27.986;2022-07-29T11:15:18;100060.47;;;29.98;41.82
10310;BME280;5200;43.236;27.986;2022-07-29T11:18:06;100071.63;;;30.01;43.00
10310;BME280;5200;43.236;27.986;2022-07-29T11:20:38;100086.44;;;29.83;41.98
10310;BME280;5200;43.236;27.986;2022-07-29T11:23:24;100082.09;;;29.82;42.46
10310;BME280;5200;43.236;27.986;2022-07-29T11:26:14;100068.59;;;29.92;42.48
10310;BME280;5200;43.236;27.986;2022-07-29T11:29:00;100075.59;;;29.83;43.23
10310;BME280;5200;43.236;27.986;2022-07-29T11:31:39;100063.06;;;29.77;42.70
10310;BME280;5200;43.236;27.986;2022-07-29T11:34:21;100048.84;;;29.55;42.64
10310;BME280;5200;43.236;27.986;2022-07-29T11:37:14;100069.16;;;29.52;43.23
10310;BME280;5200;43.236;27.986;2022-07-29T11:39:43;100062.47;;;29.27;43.99
10310;BME280;5200;43.236;27.986;2022-07-29T11:42:37;100059.94;;;29.16;43.47
10310;BME280;5200;43.236;27.986;2022-07-29T11:45:05;100053.69;;;29.10;44.52
10310;BME280;5200;43.236;27.986;2022-07-29T11:47:33;100055.44;;;29.26;42.64
10310;BME280;5200;43.236;27.986;2022-07-29T11:50:04;100056.56;;;29.31;43.95
10310;BME280;5200;43.236;27.986;2022-07-29T11:52:32;100057.97;;;29.38;43.52
10310;BME280;5200;43.236;27.986;2022-07-29T11:55:05;100034.59;;;29.32;44.66
10310;BME280;5200;43.236;27.986;2022-07-29T11:57:34;100053.06;;;29.35;43.92
10310;BME280;5200;43.236;27.986;2022-07-29T12:00:04;100049.84;;;29.43;42.49
10310;BME280;5200;43.236;27.986;2022-07-29T12:02:39;100027.91;;;29.40;44.28
10310;BME280;5200;43.236;27.986;2022-07-29T12:05:08;100035.81;;;29.52;43.31
10310;BME280;5200;43.236;27.986;2022-07-29T12:07:36;100048.31;;;29.58;44.98
10310;BME280;5200;43.236;27.986;2022-07-29T12:10:05;100045.03;;;29.56;45.39
10310;BME280;5200;43.236;27.986;2022-07-29T12:12:33;100042.91;;;29.63;45.55
10310;BME280;5200;43.236;27.986;2022-07-29T12:15:14;100041.91;;;29.69;45.47
10310;BME280;5200;43.236;27.986;2022-07-29T12:17:43;100047.53;;;29.62;44.53
10310;BME280;5200;43.236;27.986;2022-07-29T12:20:12;100017.06;;;29.40;44.07
10310;BME280;5200;43.236;27.986;2022-07-29T12:22:42;100025.38;;;29.28;45.06
10310;BME280;5200;43.236;27.986;2022-07-29T12:25:12;100033.44;;;29.23;45.82
10310;BME280;5200;43.236;27.986;2022-07-29T12:27:41;100030.28;;;29.31;45.43
10310;BME280;5200;43.236;27.986;2022-07-29T12:30:12;100017.66;;;29.10;46.31
10310;BME280;5200;43.236;27.986;2022-07-29T12:32:42;100021.00;;;29.22;46.99
10310;BME280;5200;43.236;27.986;2022-07-29T12:35:11;100017.19;;;29.23;46.50
10310;BME280;5200;43.236;27.986;2022-07-29T12:37:40;100006.31;;;29.13;46.88
10310;BME280;5200;43.236;27.986;2022-07-29T12:40:09;100020.47;;;29.25;47.20
10310;BME280;5200;43.236;27.986;2022-07-29T12:42:38;100022.94;;;29.26;46.34
10310;BME280;5200;43.236;27.986;2022-07-29T12:45:06;100012.97;;;29.00;46.73
10310;BME280;5200;43.236;27.986;2022-07-29T12:47:33;100009.50;;;28.72;47.21
10310;BME280;5200;43.236;27.986;2022-07-29T12:50:17;100010.28;;;28.73;47.99
10310;BME280;5200;43.236;27.986;2022-07-29T12:52:44;99993.81;;;28.47;48.36
10310;BME280;5200;43.236;27.986;2022-07-29T12:55:12;100005.34;;;28.37;47.30
10310;BME280;5200;43.236;27.986;2022-07-29T12:57:48;99984.28;;;28.17;48.77
10310;BME280;5200;43.236;27.986;2022-07-29T13:00:16;99988.13;;;28.21;48.76
10310;BME280;5200;43.236;27.986;2022-07-29T13:02:54;99986.34;;;28.32;48.21
10310;BME280;5200;43.236;27.986;2022-07-29T13:05:22;99994.81;;;28.41;46.61
10310;BME280;5200;43.236;27.986;2022-07-29T13:07:50;100012.06;;;28.35;46.08